Latest Coastal Weather Observations for Centre Island

IDD60701

Issued at 4:01 pm CST Saturday 25 April 2015 (issued every 10 minutes, with the page automatically refreshed every 10 minutes)

About coastal observations | Map of coastal stations | Coastal observations for NT | Marine services | Other Formats
Station Details ID: 014703 Name: CENTRE ISLAND Lat: -15.74 Lon: 136.82 Height: 12.2 m
Data from the previous 72 hours. | See also: Recent months at Centre Island
Date/Time
CST
Temp

°C
Wind Pressure Rain
since 9am
mm
Weather Cloud Vis
km
Sea
Height
m
Swell
Dir
 
Speed
knots
Gust
knots
hPa Trend Height
m
Period
s
Dir
25/04:00pm 30.4 E 10 13 1010.3 - 0.0 - - - - - - -
25/03:30pm 30.9 ENE 11 13 1010.0 - 0.0 - - - - - - -
25/03:00pm 30.8 ENE 10 13 1010.0 - 0.0 - - - - - - -
25/02:30pm 31.2 ENE 11 15 1010.0 - 0.0 - - - - - - -
25/02:00pm 31.3 ENE 10 13 1010.3 - 0.0 - - - - - - -
25/01:30pm 31.3 ESE 9 11 1010.5 - 0.0 - - - - - - -
25/01:00pm 30.8 ESE 11 13 1010.7 - 0.0 - - - - - - -
25/12:30pm 30.8 ESE 12 14 1011.2 - 0.0 - - - - - - -
25/12:00pm 30.5 ESE 12 15 1011.7 - 0.0 - - - - - - -
25/11:30am 30.1 ESE 11 13 1012.2 - 0.0 - - - - - - -
25/11:00am 29.4 ESE 8 10 1012.7 - 0.0 - - - - - - -
25/10:30am 29.0 SE 15 18 1012.8 - 0.0 - - - - - - -
25/10:00am 27.6 SE 14 17 1013.0 - 0.0 - - - - - - -
25/09:30am 26.5 SSE 12 14 1013.0 - 0.0 - - - - - - -
25/09:00am 25.5 SSE 13 15 1012.8 - 0.0 - - - - - - -
25/08:30am 25.2 SSE 15 19 1013.0 - 0.0 - - - - - - -
25/08:00am 25.4 SSE 16 19 1012.7 - 0.0 - - - - - - -
25/07:30am 25.0 SSE 13 16 1012.4 - 0.0 - - - - - - -
25/07:00am 24.3 S 11 14 1012.0 - 0.0 - - - - - - -
25/06:30am 23.9 S 11 14 1011.5 - 0.0 - - - - - - -
25/06:00am 23.8 S 11 15 1011.2 - 0.0 - - - - - - -
25/05:30am 23.7 S 11 14 1010.9 - 0.0 - - - - - - -
25/05:00am 23.8 S 13 15 1010.5 - 0.0 - - - - - - -
25/04:30am 23.7 S 11 13 1010.6 - 0.0 - - - - - - -
25/04:00am 23.7 S 11 13 1010.7 - 0.0 - - - - - - -
25/03:30am 23.5 S 10 12 1010.8 - 0.0 - - - - - - -
25/03:00am 23.6 S 11 12 1010.9 - 0.0 - - - - - - -
25/02:30am 23.7 S 10 12 1010.9 - 0.0 - - - - - - -
25/02:00am 23.9 SSW 9 11 1011.0 - 0.0 - - - - - - -
25/01:30am 24.1 SSW 6 8 1011.0 - 0.0 - - - - - - -
25/01:00am 24.1 SW 5 7 1011.2 - 0.0 - - - - - - -
25/12:30am 23.3 WSW 4 5 1011.3 - 0.0 - - - - - - -
25/12:00am 22.9 N 2 5 1011.4 - 0.0 - - - - - - -
 
Date/Time
CST
Temp

°C
Wind Pressure Rain
since 9am
mm
Weather Cloud Vis
km
Sea
Height
m
Swell
Dir
 
Speed
knots
Gust
knots
hPa Trend Height
m
Period
s
Dir
24/11:30pm 23.1 CALM 0 0 1011.4 - 0.0 - - - - - - -
24/11:00pm 23.5 CALM 0 0 1011.3 - 0.0 - - - - - - -
24/10:30pm 24.5 CALM 0 2 1011.3 - 0.0 - - - - - - -
24/10:00pm 25.0 NE 3 5 1011.3 - 0.0 - - - - - - -
24/09:30pm 25.7 NE 5 6 1011.4 - 0.0 - - - - - - -
24/09:00pm 26.0 NE 6 8 1011.7 - 0.0 - - - - - - -
24/08:30pm 26.1 NE 6 8 1011.6 - 0.0 - - - - - - -
24/08:00pm 26.3 ENE 7 10 1011.1 - 0.0 - - - - - - -
24/07:30pm 26.4 NE 8 10 1010.6 - 0.0 - - - - - - -
24/07:00pm 26.7 ENE 10 12 1010.2 - 0.0 - - - - - - -
24/06:30pm 26.9 NE 11 14 1009.9 - 0.0 - - - - - - -
24/06:00pm 27.2 NE 12 14 1009.6 - 0.0 - - - - - - -
24/05:30pm 27.9 NE 12 16 1009.4 - 0.0 - - - - - - -
24/05:00pm 28.7 NNE 12 15 1009.3 - 0.0 - - - - - - -
24/04:30pm 29.0 NNE 12 15 1009.3 - 0.0 - - - - - - -
24/04:00pm 29.7 NE 11 14 1009.3 - 0.0 - - - - - - -
24/03:30pm 30.0 NE 10 14 1009.5 - 0.0 - - - - - - -
24/03:00pm 30.6 NE 9 12 1009.4 - 0.0 - - - - - - -
24/02:30pm 30.7 ENE 9 11 1009.5 - 0.0 - - - - - - -
24/02:00pm 30.7 ENE 10 13 1009.7 - 0.0 - - - - - - -
24/01:30pm 30.8 E 9 12 1010.0 - 0.0 - - - - - - -
24/01:00pm 30.6 ESE 11 13 1010.4 - 0.0 - - - - - - -
24/12:30pm 30.2 ESE 14 16 1010.9 - 0.0 - - - - - - -
24/12:00pm 29.4 ESE 15 17 1011.4 - 0.0 - - - - - - -
24/11:30am 29.1 ESE 13 15 1012.0 - 0.0 - - - - - - -
24/11:00am 28.5 ESE 13 15 1012.2 - 0.0 - - - - - - -
24/10:30am 27.6 SE 11 13 1012.6 - 0.0 - - - - - - -
24/10:00am 26.5 SE 11 14 1012.7 - 0.0 - - - - - - -
24/09:30am 26.0 SE 13 15 1012.5 - 0.0 - - - - - - -
24/09:00am 25.4 SSE 12 15 1012.5 - 0.0 - - - - - - -
24/08:30am 24.8 SSE 13 15 1012.2 - 0.0 - - - - - - -
24/08:00am 24.5 SSE 12 14 1012.2 - 0.0 - - - - - - -
24/07:30am 24.5 SSE 12 15 1011.8 - 0.0 - - - - - - -
24/07:00am 23.6 S 10 12 1011.6 - 0.0 - - - - - - -
24/06:30am 23.3 S 11 13 1011.3 - 0.0 - - - - - - -
24/06:00am 23.2 S 10 12 1010.8 - 0.0 - - - - - - -
24/05:30am 23.3 S 10 12 1010.7 - 0.0 - - - - - - -
24/05:00am 23.2 S 11 13 1010.5 - 0.0 - - - - - - -
24/04:30am 22.9 S 10 13 1010.4 - 0.0 - - - - - - -
24/04:00am 23.3 SSW 10 13 1010.5 - 0.0 - - - - - - -
24/03:30am 23.0 SSW 7 9 1010.4 - 0.0 - - - - - - -
24/03:00am 23.5 SSW 8 11 1010.5 - 0.0 - - - - - - -
24/02:30am 23.1 SW 7 9 1010.5 - 0.0 - - - - - - -
24/02:00am 23.4 W 5 7 1010.6 - 0.0 - - - - - - -
24/01:30am 23.0 WSW 3 4 1010.5 - 0.0 - - - - - - -
24/01:00am 23.2 ESE 4 4 1010.6 - 0.0 - - - - - - -
24/12:30am 22.9 CALM 0 0 1010.7 - 0.0 - - - - - - -
24/12:00am 23.4 NE 2 3 1011.0 - 0.0 - - - - - - -
 
Date/Time
CST
Temp

°C
Wind Pressure Rain
since 9am
mm
Weather Cloud Vis
km
Sea
Height
m
Swell
Dir
 
Speed
knots
Gust
knots
hPa Trend Height
m
Period
s
Dir
23/11:30pm 23.4 CALM 0 0 1011.0 - 0.0 - - - - - - -
23/11:00pm 24.0 NNW 4 5 1011.0 - 0.0 - - - - - - -
23/10:30pm 24.0 NW 4 5 1011.0 - 0.0 - - - - - - -
23/10:00pm 23.6 NW 4 5 1011.3 - 0.0 - - - - - - -
23/09:30pm 24.9 NNE 4 6 1011.3 - 0.0 - - - - - - -
23/09:00pm 25.9 NE 6 7 1011.3 - 0.0 - - - - - - -
23/08:30pm 26.0 NE 8 10 1011.2 - 0.0 - - - - - - -
23/08:00pm 26.1 NE 7 10 1011.0 - 0.0 - - - - - - -
23/07:30pm 26.2 ENE 9 12 1010.4 - 0.0 - - - - - - -
23/07:00pm 26.5 NE 10 13 1010.1 - 0.0 - - - - - - -
23/06:30pm 26.8 NE 12 15 1009.9 - 0.0 - - - - - - -
23/06:00pm 27.0 NE 10 13 1009.5 - 0.0 - - - - - - -
23/05:30pm 27.9 NE 9 12 1009.4 - 0.0 - - - - - - -
23/05:00pm 28.8 ENE 8 11 1009.3 - 0.0 - - - - - - -
23/04:30pm 29.5 ENE 10 12 1009.1 - 0.0 - - - - - - -
23/04:00pm 30.4 ENE 11 13 1009.1 - 0.0 - - - - - - -
23/03:30pm 30.3 ENE 12 15 1009.2 - 0.0 - - - - - - -
23/03:00pm 29.6 ENE 14 18 1009.2 - 0.0 - - - - - - -
23/02:30pm 30.3 E 14 17 1009.3 - 0.0 - - - - - - -
23/02:00pm 30.3 E 15 18 1009.6 - 0.0 - - - - - - -
23/01:30pm 29.8 E 16 20 1010.0 - 0.0 - - - - - - -
23/01:00pm 29.6 E 17 22 1010.3 - 0.0 - - - - - - -
23/12:30pm 28.9 E 20 24 1010.8 - 0.0 - - - - - - -
23/12:00pm 28.3 ESE 21 25 1011.3 - 0.0 - - - - - - -
23/11:30am 27.8 ESE 21 25 1011.9 - 0.0 - - - - - - -
23/11:00am 27.5 ESE 21 25 1012.3 - 0.0 - - - - - - -
23/10:30am 27.2 ESE 22 26 1012.5 - 0.0 - - - - - - -
23/10:00am 26.7 ESE 22 25 1012.6 - 0.0 - - - - - - -
23/09:30am 26.3 ESE 20 23 1012.7 - 0.0 - - - - - - -
23/09:00am 25.9 SE 19 23 1012.5 - 0.0 - - - - - - -
23/08:30am 25.4 SE 20 23 1012.4 - 0.0 - - - - - - -
23/08:00am 25.3 SE 21 23 1012.5 - 0.0 - - - - - - -
23/07:30am 25.2 SE 21 23 1012.3 - 0.0 - - - - - - -
23/07:00am 24.8 SE 19 21 1012.2 - 0.0 - - - - - - -
23/06:30am 24.0 SE 12 14 1012.0 - 0.0 - - - - - - -
23/06:00am 24.0 SSE 12 13 1011.6 - 0.0 - - - - - - -
23/05:30am 24.0 SSE 8 11 1011.2 - 0.0 - - - - - - -
23/05:00am 23.8 S 7 9 1011.1 - 0.0 - - - - - - -
23/04:30am 23.9 S 7 9 1011.2 - 0.0 - - - - - - -
23/04:00am 23.9 S 6 8 1011.3 - 0.0 - - - - - - -
23/03:30am 23.9 SSW 6 8 1011.4 - 0.0 - - - - - - -
23/03:00am 23.9 SW 9 11 1011.7 - 0.0 - - - - - - -
23/02:30am 24.2 SW 8 10 1011.8 - 0.0 - - - - - - -
23/02:00am 24.3 SW 7 9 1011.8 - 0.0 - - - - - - -
23/01:30am 24.5 WSW 8 10 1012.0 - 0.0 - - - - - - -
23/01:00am 24.7 SW 7 9 1012.2 - 0.0 - - - - - - -
23/12:30am 25.5 S 7 8 1012.4 - 0.0 - - - - - - -
23/12:00am 25.5 S 6 8 1012.6 - 0.0 - - - - - - -
 
Date/Time
CST
Temp

°C
Wind Pressure Rain
since 9am
mm
Weather Cloud Vis
km
Sea
Height
m
Swell
Dir
 
Speed
knots
Gust
knots
hPa Trend Height
m
Period
s
Dir
22/11:30pm 24.4 WSW 4 5 1012.4 - 0.0 - - - - - - -
22/11:00pm 24.1 CALM 0 0 1012.7 - 0.0 - - - - - - -
22/10:30pm 24.2 CALM 0 0 1012.8 - 0.0 - - - - - - -
22/10:00pm 24.7 E 3 4 1012.9 - 0.0 - - - - - - -
22/09:30pm 25.1 E 3 4 1013.0 - 0.0 - - - - - - -
22/09:00pm 26.0 E 5 6 1013.1 - 0.0 - - - - - - -
22/08:30pm 26.3 ENE 6 8 1013.0 - 0.0 - - - - - - -
22/08:00pm 26.5 ENE 9 10 1012.5 - 0.0 - - - - - - -
22/07:30pm 26.8 ENE 10 12 1011.9 - 0.0 - - - - - - -
22/07:00pm 27.0 ENE 10 12 1011.4 - 0.0 - - - - - - -
22/06:30pm 27.2 ENE 12 14 1011.0 - 0.0 - - - - - - -
22/06:00pm 27.5 NE 9 12 1010.8 - 0.0 - - - - - - -
22/05:30pm 27.9 NE 11 14 1010.4 - 0.0 - - - - - - -
22/05:00pm 28.4 NE 12 16 1010.2 - 0.0 - - - - - - -
22/04:30pm 28.9 NNE 11 14 1010.0 - 0.0 - - - - - - -

Other Formats:

Comma delimited format used in spreadsheet applications
http://www.bom.gov.au/fwo/IDD60701/IDD60701.94248.axf

JavaScript Object Notation format (JSON) in row-major order
http://www.bom.gov.au/fwo/IDD60701/IDD60701.94248.json